Urb Cape Sea Village, Puerto Rico
Current Conditions -  °F | °C
As of 8:56 AM on Friday 28 Nov 2014 (Local Time) from TJSJ Reporting Station
Few Clouds Few Clouds  
Wind Chill: 80°   Ceiling: Unl
Heat Index: 84°   Visibility: 10mi
Dew Point: 73°   Wind: 0mph
Humidity: 79%   Direction: NA
Pressure: 29.99"   Gusts: NA
Location:  18.4048°N, 65.9789°W
Report Text: TJSJ 281256Z 00000KT 10SM FEW025 27/23 A2999 RMK AO2 SLP155 T02670228
Loading
Personal Weather Stations






























Interactive Weather Map New forecast layout! Learn more

10-Day Weather Forecast

Advertisements
Track Severe Weather on mobile